Terminal Aerodrome Forecast
Issued by NWS Rapid City, SD

Home | Current Version | Previous Version | Text Only | Print | Product List | Glossary Off
Versions: 1 2 3 4 5 6 7 8 9 10 11 12 13 14 15 16 17 18

000
FTUS43 KUNR 261733
TAFRAP
TAF
KRAP 261733Z 2618/2718 33011G21KT P6SM SCT100
     FM270000 32007KT P6SM -SHRA OVC040
     FM271300 33010KT P6SM BKN100=

USA.gov is the U.S. government's official web portal to all federal, state and local government web resources and services.